sensor_id;sensor_type;location;lat;lon;timestamp;P1;durP1;ratioP1;P2;durP2;ratioP2
55013;SDS011;40916;51.632;5.552;2022-11-15T00:00:41;22.7;;;53;;
55013;SDS011;40916;51.632;5.552;2022-11-15T00:05:41;20.1;;;39;;
55013;SDS011;40916;51.632;5.552;2022-11-15T00:10:41;21.2;;;46.7;;
55013;SDS011;40916;51.632;5.552;2022-11-15T00:15:41;18.3;;;36.2;;
55013;SDS011;40916;51.632;5.552;2022-11-15T00:20:41;21.3;;;37.8;;
55013;SDS011;40916;51.632;5.552;2022-11-15T00:25:41;20.1;;;39.2;;
55013;SDS011;40916;51.632;5.552;2022-11-15T00:30:41;20.8;;;43.8;;
55013;SDS011;40916;51.632;5.552;2022-11-15T00:35:41;20.6;;;38.2;;
55013;SDS011;40916;51.632;5.552;2022-11-15T00:40:41;18.8;;;34.3;;
55013;SDS011;40916;51.632;5.552;2022-11-15T00:45:41;18.2;;;33.7;;
55013;SDS011;40916;51.632;5.552;2022-11-15T00:50:41;20.7;;;37.1;;
55013;SDS011;40916;51.632;5.552;2022-11-15T00:55:41;18.5;;;33.6;;
55013;SDS011;40916;51.632;5.552;2022-11-15T01:00:41;17.8;;;29.5;;
55013;SDS011;40916;51.632;5.552;2022-11-15T01:05:41;18.7;;;33.3;;
55013;SDS011;40916;51.632;5.552;2022-11-15T01:10:41;17.9;;;29.1;;
55013;SDS011;40916;51.632;5.552;2022-11-15T01:15:41;19.6;;;32.7;;
55013;SDS011;40916;51.632;5.552;2022-11-15T01:20:41;17.8;;;29.1;;
55013;SDS011;40916;51.632;5.552;2022-11-15T01:25:41;18.1;;;28.8;;
55013;SDS011;40916;51.632;5.552;2022-11-15T01:30:41;17.8;;;32.8;;
55013;SDS011;40916;51.632;5.552;2022-11-15T01:35:41;16.3;;;29.9;;
55013;SDS011;40916;51.632;5.552;2022-11-15T01:40:41;12.6;;;22.6;;
55013;SDS011;40916;51.632;5.552;2022-11-15T01:45:41;16.5;;;24.9;;
55013;SDS011;40916;51.632;5.552;2022-11-15T01:50:41;16.1;;;27.5;;
55013;SDS011;40916;51.632;5.552;2022-11-15T01:55:41;17.1;;;30.4;;
55013;SDS011;40916;51.632;5.552;2022-11-15T02:00:41;15.7;;;22.3;;
55013;SDS011;40916;51.632;5.552;2022-11-15T02:05:41;15.5;;;25.9;;
55013;SDS011;40916;51.632;5.552;2022-11-15T02:10:41;16.4;;;26.7;;
55013;SDS011;40916;51.632;5.552;2022-11-15T02:15:43;16.9;;;27.8;;
55013;SDS011;40916;51.632;5.552;2022-11-15T02:20:43;16.5;;;29.9;;
55013;SDS011;40916;51.632;5.552;2022-11-15T02:25:45;16.2;;;28.2;;
55013;SDS011;40916;51.632;5.552;2022-11-15T02:30:41;17.6;;;28.8;;
55013;SDS011;40916;51.632;5.552;2022-11-15T02:35:43;15.5;;;26.5;;
55013;SDS011;40916;51.632;5.552;2022-11-15T02:40:41;17.5;;;30.4;;
55013;SDS011;40916;51.632;5.552;2022-11-15T02:45:42;16.2;;;24.9;;
55013;SDS011;40916;51.632;5.552;2022-11-15T02:50:41;17.4;;;28.1;;
55013;SDS011;40916;51.632;5.552;2022-11-15T02:55:41;18;;;31.8;;
55013;SDS011;40916;51.632;5.552;2022-11-15T03:00:42;17.9;;;33.3;;
55013;SDS011;40916;51.632;5.552;2022-11-15T03:05:42;17.4;;;29.5;;
55013;SDS011;40916;51.632;5.552;2022-11-15T03:10:42;19.2;;;29;;
55013;SDS011;40916;51.632;5.552;2022-11-15T03:15:42;20.3;;;36.8;;
55013;SDS011;40916;51.632;5.552;2022-11-15T03:20:41;19.5;;;30.8;;
55013;SDS011;40916;51.632;5.552;2022-11-15T03:25:41;17.7;;;26.4;;
55013;SDS011;40916;51.632;5.552;2022-11-15T03:30:41;17.8;;;28.7;;
55013;SDS011;40916;51.632;5.552;2022-11-15T03:35:42;17.2;;;27.3;;
55013;SDS011;40916;51.632;5.552;2022-11-15T03:40:42;19.3;;;33.8;;
55013;SDS011;40916;51.632;5.552;2022-11-15T03:45:43;18.6;;;32.2;;
55013;SDS011;40916;51.632;5.552;2022-11-15T03:50:41;17.4;;;29.4;;
55013;SDS011;40916;51.632;5.552;2022-11-15T03:55:41;19.4;;;37.3;;
55013;SDS011;40916;51.632;5.552;2022-11-15T04:00:41;20.6;;;38.5;;
55013;SDS011;40916;51.632;5.552;2022-11-15T04:05:41;22.9;;;40;;
55013;SDS011;40916;51.632;5.552;2022-11-15T04:10:41;22.9;;;37;;
55013;SDS011;40916;51.632;5.552;2022-11-15T04:15:41;22.9;;;35.5;;
55013;SDS011;40916;51.632;5.552;2022-11-15T04:20:41;22.5;;;44.2;;
55013;SDS011;40916;51.632;5.552;2022-11-15T04:25:41;22.4;;;40.4;;
55013;SDS011;40916;51.632;5.552;2022-11-15T04:30:41;25.2;;;42.9;;
55013;SDS011;40916;51.632;5.552;2022-11-15T04:35:41;23.6;;;47.8;;
55013;SDS011;40916;51.632;5.552;2022-11-15T04:40:41;23.6;;;43.2;;
55013;SDS011;40916;51.632;5.552;2022-11-15T04:45:41;25.1;;;53;;
55013;SDS011;40916;51.632;5.552;2022-11-15T04:50:41;25.6;;;44.8;;
55013;SDS011;40916;51.632;5.552;2022-11-15T04:55:43;24.7;;;46.7;;
55013;SDS011;40916;51.632;5.552;2022-11-15T05:00:41;25.6;;;49.3;;
55013;SDS011;40916;51.632;5.552;2022-11-15T05:05:41;25;;;44.1;;
55013;SDS011;40916;51.632;5.552;2022-11-15T05:10:41;23.8;;;45.8;;
55013;SDS011;40916;51.632;5.552;2022-11-15T05:15:41;24.1;;;46.9;;
55013;SDS011;40916;51.632;5.552;2022-11-15T05:20:41;25.5;;;42.8;;
55013;SDS011;40916;51.632;5.552;2022-11-15T05:25:41;27.1;;;48.6;;
55013;SDS011;40916;51.632;5.552;2022-11-15T05:30:41;25.8;;;49.3;;
55013;SDS011;40916;51.632;5.552;2022-11-15T05:35:41;24.1;;;45.8;;
55013;SDS011;40916;51.632;5.552;2022-11-15T05:40:41;24.9;;;45.9;;
55013;SDS011;40916;51.632;5.552;2022-11-15T05:45:41;22.6;;;37.8;;
55013;SDS011;40916;51.632;5.552;2022-11-15T05:50:41;24;;;46;;
55013;SDS011;40916;51.632;5.552;2022-11-15T05:55:41;22.3;;;39.2;;
55013;SDS011;40916;51.632;5.552;2022-11-15T06:00:41;20.7;;;37.2;;
55013;SDS011;40916;51.632;5.552;2022-11-15T06:05:41;21.2;;;42.5;;
55013;SDS011;40916;51.632;5.552;2022-11-15T06:10:41;20.1;;;34;;
55013;SDS011;40916;51.632;5.552;2022-11-15T06:15:41;20.7;;;34.4;;
55013;SDS011;40916;51.632;5.552;2022-11-15T06:20:41;20.5;;;40.1;;
55013;SDS011;40916;51.632;5.552;2022-11-15T06:25:41;19.9;;;34.6;;
55013;SDS011;40916;51.632;5.552;2022-11-15T06:30:41;18.1;;;32;;
55013;SDS011;40916;51.632;5.552;2022-11-15T06:35:41;17.2;;;27.3;;
55013;SDS011;40916;51.632;5.552;2022-11-15T06:40:41;15.1;;;28.8;;
55013;SDS011;40916;51.632;5.552;2022-11-15T06:45:41;16.4;;;30.8;;
55013;SDS011;40916;51.632;5.552;2022-11-15T06:50:41;15.1;;;24.6;;
55013;SDS011;40916;51.632;5.552;2022-11-15T06:55:41;17.1;;;25.8;;
55013;SDS011;40916;51.632;5.552;2022-11-15T07:00:41;17.2;;;25;;
55013;SDS011;40916;51.632;5.552;2022-11-15T07:05:41;15.9;;;23.9;;
55013;SDS011;40916;51.632;5.552;2022-11-15T07:10:41;16;;;24.7;;
55013;SDS011;40916;51.632;5.552;2022-11-15T07:15:41;16.1;;;26.5;;
55013;SDS011;40916;51.632;5.552;2022-11-15T07:20:41;15.5;;;24.3;;
55013;SDS011;40916;51.632;5.552;2022-11-15T07:25:41;15;;;30.4;;
55013;SDS011;40916;51.632;5.552;2022-11-15T07:30:41;13;;;23.9;;
55013;SDS011;40916;51.632;5.552;2022-11-15T07:35:41;13.7;;;21.5;;
55013;SDS011;40916;51.632;5.552;2022-11-15T07:40:41;15.9;;;26.4;;
55013;SDS011;40916;51.632;5.552;2022-11-15T07:45:41;14.9;;;27.2;;
55013;SDS011;40916;51.632;5.552;2022-11-15T07:50:41;15.5;;;27;;
55013;SDS011;40916;51.632;5.552;2022-11-15T07:55:41;16.7;;;31.4;;
55013;SDS011;40916;51.632;5.552;2022-11-15T08:00:40;15.7;;;25.2;;
55013;SDS011;40916;51.632;5.552;2022-11-15T08:05:41;16.8;;;29.1;;
55013;SDS011;40916;51.632;5.552;2022-11-15T08:10:40;16.1;;;30.2;;
55013;SDS011;40916;51.632;5.552;2022-11-15T08:15:41;15.1;;;28;;
55013;SDS011;40916;51.632;5.552;2022-11-15T08:20:41;11.4;;;21.7;;
55013;SDS011;40916;51.632;5.552;2022-11-15T08:25:40;13.2;;;21.5;;
55013;SDS011;40916;51.632;5.552;2022-11-15T08:30:41;13;;;20.5;;
55013;SDS011;40916;51.632;5.552;2022-11-15T08:35:41;12.8;;;19.8;;
55013;SDS011;40916;51.632;5.552;2022-11-15T08:40:40;10.2;;;15.7;;
55013;SDS011;40916;51.632;5.552;2022-11-15T08:45:40;10.3;;;16.3;;
55013;SDS011;40916;51.632;5.552;2022-11-15T08:50:40;9;;;12.9;;
55013;SDS011;40916;51.632;5.552;2022-11-15T08:55:40;8.7;;;12.6;;
55013;SDS011;40916;51.632;5.552;2022-11-15T09:00:40;8.6;;;15.9;;
55013;SDS011;40916;51.632;5.552;2022-11-15T09:05:40;6.9;;;14.8;;
55013;SDS011;40916;51.632;5.552;2022-11-15T09:10:40;6.8;;;16.4;;
55013;SDS011;40916;51.632;5.552;2022-11-15T09:15:40;6;;;11.8;;
55013;SDS011;40916;51.632;5.552;2022-11-15T09:20:40;5;;;12.2;;
55013;SDS011;40916;51.632;5.552;2022-11-15T09:25:40;6.1;;;10;;
55013;SDS011;40916;51.632;5.552;2022-11-15T09:30:40;5.6;;;8.7;;
55013;SDS011;40916;51.632;5.552;2022-11-15T09:35:40;6;;;11;;
55013;SDS011;40916;51.632;5.552;2022-11-15T09:40:40;5.6;;;10;;
55013;SDS011;40916;51.632;5.552;2022-11-15T09:45:42;5.3;;;7.9;;
55013;SDS011;40916;51.632;5.552;2022-11-15T09:50:41;4.3;;;6.6;;
55013;SDS011;40916;51.632;5.552;2022-11-15T09:55:44;4.1;;;7.4;;
55013;SDS011;40916;51.632;5.552;2022-11-15T10:00:42;3.8;;;5.9;;
55013;SDS011;40916;51.632;5.552;2022-11-15T10:05:41;3.3;;;6.5;;
55013;SDS011;40916;51.632;5.552;2022-11-15T10:10:41;2.7;;;10.1;;
55013;SDS011;40916;51.632;5.552;2022-11-15T10:15:41;2.5;;;6;;
55013;SDS011;40916;51.632;5.552;2022-11-15T10:20:44;2.5;;;5.8;;
55013;SDS011;40916;51.632;5.552;2022-11-15T10:25:40;2.1;;;8.6;;
55013;SDS011;40916;51.632;5.552;2022-11-15T10:30:41;2.6;;;7.5;;
55013;SDS011;40916;51.632;5.552;2022-11-15T10:35:40;1;;;5.3;;
55013;SDS011;40916;51.632;5.552;2022-11-15T10:40:40;1.9;;;8.8;;
55013;SDS011;40916;51.632;5.552;2022-11-15T10:45:40;1.3;;;5.6;;
55013;SDS011;40916;51.632;5.552;2022-11-15T10:50:41;1.1;;;3;;
55013;SDS011;40916;51.632;5.552;2022-11-15T10:55:40;2.3;;;6.7;;
55013;SDS011;40916;51.632;5.552;2022-11-15T11:00:40;1.2;;;5;;
55013;SDS011;40916;51.632;5.552;2022-11-15T11:05:40;1.3;;;3.5;;
55013;SDS011;40916;51.632;5.552;2022-11-15T11:10:40;1.4;;;6.2;;
55013;SDS011;40916;51.632;5.552;2022-11-15T11:15:41;1.6;;;7.2;;
55013;SDS011;40916;51.632;5.552;2022-11-15T11:20:41;1.4;;;5.2;;
55013;SDS011;40916;51.632;5.552;2022-11-15T11:25:42;1.3;;;3.8;;
55013;SDS011;40916;51.632;5.552;2022-11-15T11:30:44;1.5;;;6.8;;
55013;SDS011;40916;51.632;5.552;2022-11-15T11:35:43;1.2;;;3.9;;
55013;SDS011;40916;51.632;5.552;2022-11-15T11:40:41;0.9;;;4.4;;
55013;SDS011;40916;51.632;5.552;2022-11-15T11:45:44;1.2;;;3.9;;
55013;SDS011;40916;51.632;5.552;2022-11-15T11:50:40;1.5;;;4.5;;
55013;SDS011;40916;51.632;5.552;2022-11-15T11:55:41;1.6;;;7.1;;
55013;SDS011;40916;51.632;5.552;2022-11-15T12:00:41;2.1;;;6.3;;
55013;SDS011;40916;51.632;5.552;2022-11-15T12:05:42;1.2;;;3.2;;
55013;SDS011;40916;51.632;5.552;2022-11-15T12:10:40;2;;;7.8;;
55013;SDS011;40916;51.632;5.552;2022-11-15T12:15:41;1.6;;;5.3;;
55013;SDS011;40916;51.632;5.552;2022-11-15T12:20:41;1.7;;;5.8;;
55013;SDS011;40916;51.632;5.552;2022-11-15T12:25:42;1.6;;;4.7;;
55013;SDS011;40916;51.632;5.552;2022-11-15T12:30:42;1.4;;;5;;
55013;SDS011;40916;51.632;5.552;2022-11-15T12:35:41;1.2;;;4.6;;
55013;SDS011;40916;51.632;5.552;2022-11-15T12:45:41;1.4;;;7.4;;
55013;SDS011;40916;51.632;5.552;2022-11-15T12:50:52;1.4;;;5;;
55013;SDS011;40916;51.632;5.552;2022-11-15T12:55:40;1.4;;;8;;
55013;SDS011;40916;51.632;5.552;2022-11-15T13:00:40;1.2;;;6.3;;
55013;SDS011;40916;51.632;5.552;2022-11-15T13:05:57;1;;;2.7;;
55013;SDS011;40916;51.632;5.552;2022-11-15T13:10:40;2.1;;;9;;
55013;SDS011;40916;51.632;5.552;2022-11-15T13:15:45;1.5;;;10.7;;
55013;SDS011;40916;51.632;5.552;2022-11-15T13:20:44;1.3;;;7.3;;
55013;SDS011;40916;51.632;5.552;2022-11-15T13:25:50;1.4;;;6.1;;
55013;SDS011;40916;51.632;5.552;2022-11-15T13:30:41;1.8;;;6;;
55013;SDS011;40916;51.632;5.552;2022-11-15T13:35:40;1.3;;;5.4;;
55013;SDS011;40916;51.632;5.552;2022-11-15T13:40:40;1.3;;;7.3;;
55013;SDS011;40916;51.632;5.552;2022-11-15T13:45:40;1.3;;;4.8;;
55013;SDS011;40916;51.632;5.552;2022-11-15T13:50:40;1.5;;;7.3;;
55013;SDS011;40916;51.632;5.552;2022-11-15T13:55:40;0.9;;;3.4;;
55013;SDS011;40916;51.632;5.552;2022-11-15T14:00:41;1.1;;;8;;
55013;SDS011;40916;51.632;5.552;2022-11-15T14:05:40;1.4;;;5.1;;
55013;SDS011;40916;51.632;5.552;2022-11-15T14:10:40;1.2;;;6.6;;
55013;SDS011;40916;51.632;5.552;2022-11-15T14:15:40;1.4;;;8;;
55013;SDS011;40916;51.632;5.552;2022-11-15T14:20:40;1.5;;;9.1;;
55013;SDS011;40916;51.632;5.552;2022-11-15T14:25:40;1.4;;;6.1;;
55013;SDS011;40916;51.632;5.552;2022-11-15T14:30:40;1.4;;;5.1;;
55013;SDS011;40916;51.632;5.552;2022-11-15T14:35:40;1.1;;;4.5;;
55013;SDS011;40916;51.632;5.552;2022-11-15T14:40:40;1.4;;;4.7;;
55013;SDS011;40916;51.632;5.552;2022-11-15T14:45:40;1.8;;;9;;
55013;SDS011;40916;51.632;5.552;2022-11-15T14:50:40;1.1;;;3.1;;
55013;SDS011;40916;51.632;5.552;2022-11-15T14:55:40;1.2;;;6.5;;
55013;SDS011;40916;51.632;5.552;2022-11-15T15:00:40;1.4;;;8.3;;
55013;SDS011;40916;51.632;5.552;2022-11-15T15:05:41;1.5;;;7;;
55013;SDS011;40916;51.632;5.552;2022-11-15T15:10:41;1.2;;;3.2;;
55013;SDS011;40916;51.632;5.552;2022-11-15T15:15:40;1.4;;;5.1;;
55013;SDS011;40916;51.632;5.552;2022-11-15T15:20:40;1.6;;;4;;
55013;SDS011;40916;51.632;5.552;2022-11-15T15:25:40;1.5;;;6.7;;
55013;SDS011;40916;51.632;5.552;2022-11-15T15:30:40;1.2;;;6.5;;
55013;SDS011;40916;51.632;5.552;2022-11-15T15:35:40;1.3;;;5.7;;
55013;SDS011;40916;51.632;5.552;2022-11-15T15:40:40;1.3;;;3.1;;
55013;SDS011;40916;51.632;5.552;2022-11-15T15:45:40;2;;;5.3;;
55013;SDS011;40916;51.632;5.552;2022-11-15T15:50:40;1.6;;;7.9;;
55013;SDS011;40916;51.632;5.552;2022-11-15T15:55:40;1.4;;;5.9;;
55013;SDS011;40916;51.632;5.552;2022-11-15T16:00:40;1.5;;;4.2;;
55013;SDS011;40916;51.632;5.552;2022-11-15T16:05:40;1.4;;;4.6;;
55013;SDS011;40916;51.632;5.552;2022-11-15T16:10:40;1.2;;;7.5;;
55013;SDS011;40916;51.632;5.552;2022-11-15T16:15:40;1.9;;;11.3;;
55013;SDS011;40916;51.632;5.552;2022-11-15T16:20:41;1.6;;;7.5;;
55013;SDS011;40916;51.632;5.552;2022-11-15T16:25:41;2.3;;;6.4;;
55013;SDS011;40916;51.632;5.552;2022-11-15T16:30:40;1.4;;;4.9;;
55013;SDS011;40916;51.632;5.552;2022-11-15T16:35:40;1.9;;;6.4;;
55013;SDS011;40916;51.632;5.552;2022-11-15T16:40:40;1.9;;;8.1;;
55013;SDS011;40916;51.632;5.552;2022-11-15T16:45:40;1.9;;;8.3;;
55013;SDS011;40916;51.632;5.552;2022-11-15T16:50:40;1.8;;;6.6;;
55013;SDS011;40916;51.632;5.552;2022-11-15T16:55:40;2.6;;;6.1;;
55013;SDS011;40916;51.632;5.552;2022-11-15T17:00:40;1.7;;;5.9;;
55013;SDS011;40916;51.632;5.552;2022-11-15T17:05:40;2.2;;;8.8;;
55013;SDS011;40916;51.632;5.552;2022-11-15T17:10:40;2.1;;;5.5;;
55013;SDS011;40916;51.632;5.552;2022-11-15T17:15:40;2.2;;;11.3;;
55013;SDS011;40916;51.632;5.552;2022-11-15T17:20:40;2.8;;;9.5;;
55013;SDS011;40916;51.632;5.552;2022-11-15T17:25:40;2.3;;;6.6;;
55013;SDS011;40916;51.632;5.552;2022-11-15T17:30:40;2.5;;;4.8;;
55013;SDS011;40916;51.632;5.552;2022-11-15T17:35:40;2.8;;;9.7;;
55013;SDS011;40916;51.632;5.552;2022-11-15T17:40:40;2.9;;;10.2;;
55013;SDS011;40916;51.632;5.552;2022-11-15T17:45:40;3.5;;;10.6;;
55013;SDS011;40916;51.632;5.552;2022-11-15T17:50:40;3.6;;;6.1;;
55013;SDS011;40916;51.632;5.552;2022-11-15T17:55:40;3.2;;;8.8;;
55013;SDS011;40916;51.632;5.552;2022-11-15T18:00:40;3.2;;;7.7;;
55013;SDS011;40916;51.632;5.552;2022-11-15T18:05:40;5.1;;;15.2;;
55013;SDS011;40916;51.632;5.552;2022-11-15T18:10:40;4.6;;;10.1;;
55013;SDS011;40916;51.632;5.552;2022-11-15T18:15:40;3.4;;;7.6;;
55013;SDS011;40916;51.632;5.552;2022-11-15T18:20:40;4.5;;;6.4;;
55013;SDS011;40916;51.632;5.552;2022-11-15T18:25:40;4.5;;;9.3;;
55013;SDS011;40916;51.632;5.552;2022-11-15T18:30:40;4;;;6.5;;
55013;SDS011;40916;51.632;5.552;2022-11-15T18:35:40;4.4;;;6.1;;
55013;SDS011;40916;51.632;5.552;2022-11-15T18:40:40;5.4;;;10;;
55013;SDS011;40916;51.632;5.552;2022-11-15T18:45:40;4.8;;;7.3;;
55013;SDS011;40916;51.632;5.552;2022-11-15T18:50:40;5.4;;;11.7;;
55013;SDS011;40916;51.632;5.552;2022-11-15T18:55:40;4.8;;;7.3;;
55013;SDS011;40916;51.632;5.552;2022-11-15T19:00:40;5.6;;;9.4;;
55013;SDS011;40916;51.632;5.552;2022-11-15T19:05:40;5.3;;;7.8;;
55013;SDS011;40916;51.632;5.552;2022-11-15T19:10:40;5.3;;;8.5;;
55013;SDS011;40916;51.632;5.552;2022-11-15T19:15:40;5.1;;;7.2;;
55013;SDS011;40916;51.632;5.552;2022-11-15T19:20:40;5.9;;;10.5;;
55013;SDS011;40916;51.632;5.552;2022-11-15T19:25:40;5.4;;;7.1;;
55013;SDS011;40916;51.632;5.552;2022-11-15T19:30:40;6;;;10.9;;
55013;SDS011;40916;51.632;5.552;2022-11-15T19:35:40;6.2;;;8.2;;
55013;SDS011;40916;51.632;5.552;2022-11-15T19:40:40;8.9;;;14.4;;
55013;SDS011;40916;51.632;5.552;2022-11-15T19:45:40;8;;;12.8;;
55013;SDS011;40916;51.632;5.552;2022-11-15T19:50:40;6.2;;;8.2;;
55013;SDS011;40916;51.632;5.552;2022-11-15T19:55:40;7.1;;;9.1;;
55013;SDS011;40916;51.632;5.552;2022-11-15T20:00:40;7.6;;;11.7;;
55013;SDS011;40916;51.632;5.552;2022-11-15T20:05:40;7.3;;;12.1;;
55013;SDS011;40916;51.632;5.552;2022-11-15T20:10:40;6.8;;;11.5;;
55013;SDS011;40916;51.632;5.552;2022-11-15T20:15:41;9;;;11.9;;
55013;SDS011;40916;51.632;5.552;2022-11-15T20:20:40;8.1;;;11.2;;
55013;SDS011;40916;51.632;5.552;2022-11-15T20:25:42;7.5;;;12.1;;
55013;SDS011;40916;51.632;5.552;2022-11-15T20:30:41;8.4;;;12.4;;
55013;SDS011;40916;51.632;5.552;2022-11-15T20:35:40;9.2;;;12.6;;
55013;SDS011;40916;51.632;5.552;2022-11-15T20:40:40;8.6;;;13.7;;
55013;SDS011;40916;51.632;5.552;2022-11-15T20:45:41;8.6;;;13;;
55013;SDS011;40916;51.632;5.552;2022-11-15T20:50:40;9;;;12.5;;
55013;SDS011;40916;51.632;5.552;2022-11-15T20:55:40;8.9;;;13.5;;
55013;SDS011;40916;51.632;5.552;2022-11-15T21:00:40;10.3;;;17.1;;
55013;SDS011;40916;51.632;5.552;2022-11-15T21:05:40;9.7;;;15.4;;
55013;SDS011;40916;51.632;5.552;2022-11-15T21:10:40;10.1;;;16.8;;
55013;SDS011;40916;51.632;5.552;2022-11-15T21:15:39;10.2;;;14.9;;
55013;SDS011;40916;51.632;5.552;2022-11-15T21:20:40;9.3;;;15.5;;
55013;SDS011;40916;51.632;5.552;2022-11-15T21:25:40;9.6;;;14.2;;
55013;SDS011;40916;51.632;5.552;2022-11-15T21:30:39;9;;;13.3;;
55013;SDS011;40916;51.632;5.552;2022-11-15T21:35:39;8.3;;;11.4;;
55013;SDS011;40916;51.632;5.552;2022-11-15T21:40:40;7.4;;;9.4;;
55013;SDS011;40916;51.632;5.552;2022-11-15T21:45:39;8.1;;;12.6;;
55013;SDS011;40916;51.632;5.552;2022-11-15T21:50:39;8.2;;;12.8;;
55013;SDS011;40916;51.632;5.552;2022-11-15T21:55:39;8;;;13.3;;
55013;SDS011;40916;51.632;5.552;2022-11-15T22:00:39;7.1;;;9.3;;
55013;SDS011;40916;51.632;5.552;2022-11-15T22:05:42;7.9;;;11.5;;
55013;SDS011;40916;51.632;5.552;2022-11-15T22:10:39;7.4;;;11.4;;
55013;SDS011;40916;51.632;5.552;2022-11-15T22:15:40;8;;;13.9;;
55013;SDS011;40916;51.632;5.552;2022-11-15T22:20:39;7.3;;;9.8;;
55013;SDS011;40916;51.632;5.552;2022-11-15T22:25:39;7.6;;;12.6;;
55013;SDS011;40916;51.632;5.552;2022-11-15T22:30:39;7.7;;;10;;
55013;SDS011;40916;51.632;5.552;2022-11-15T22:35:40;7.5;;;11.5;;
55013;SDS011;40916;51.632;5.552;2022-11-15T22:40:39;7.7;;;10.5;;
55013;SDS011;40916;51.632;5.552;2022-11-15T22:45:45;7.7;;;12.2;;
55013;SDS011;40916;51.632;5.552;2022-11-15T22:50:40;7.7;;;12.1;;
55013;SDS011;40916;51.632;5.552;2022-11-15T22:55:39;7.5;;;9.9;;
55013;SDS011;40916;51.632;5.552;2022-11-15T23:00:39;8;;;11.1;;
55013;SDS011;40916;51.632;5.552;2022-11-15T23:05:39;8.2;;;12.2;;
55013;SDS011;40916;51.632;5.552;2022-11-15T23:10:39;9;;;13.8;;
55013;SDS011;40916;51.632;5.552;2022-11-15T23:15:39;8.6;;;11;;
55013;SDS011;40916;51.632;5.552;2022-11-15T23:20:39;9;;;13.2;;
55013;SDS011;40916;51.632;5.552;2022-11-15T23:25:39;9.1;;;12.2;;
55013;SDS011;40916;51.632;5.552;2022-11-15T23:30:39;9;;;12.9;;
55013;SDS011;40916;51.632;5.552;2022-11-15T23:35:39;10.2;;;14;;
55013;SDS011;40916;51.632;5.552;2022-11-15T23:40:39;9.7;;;13.7;;
55013;SDS011;40916;51.632;5.552;2022-11-15T23:45:39;10.4;;;17.6;;
55013;SDS011;40916;51.632;5.552;2022-11-15T23:50:39;8.6;;;11.4;;
55013;SDS011;40916;51.632;5.552;2022-11-15T23:55:39;10;;;15.7;;
